Harper, Kentucky
Current Conditions -  °F | °C
As of 9:53 PM on Thursday 18 Dec 2014 (Local Time) from KJKL Reporting Station
Overcast Overcast  
Wind Chill: -1°   Ceiling: 7000
Heat Index: -1°   Visibility: 10mi
Dew Point: -4°   Wind: 3mph
Humidity: 76%   Direction: 330°NNW
Pressure: 30.18"   Gusts: NA
Location:  37.7261°N, 83.0786°W
Report Text: KJKL 190253Z AUTO 33003KT 10SM OVC070 M01/M04 A3018 RMK AO2 SLP232 T10061044 53004
Loading
Personal Weather Stations






























Interactive Weather Map New forecast layout! Learn more

10-Day Weather Forecast

Advertisements
Track Severe Weather on mobile